Terminal Aerodrome Forecast
Issued by NWS Blacksburg, VA

Current Version | Previous Version | Text Only | Print | Product List | Glossary Off
Versions: 1 2 3 4 5 6 7 8 9 10 11 12 13 14 15 16 17 18 19 20 21 22 23 24 25 26 27 28 29 30 31 32 33 34 35 36 37 38 39 40 41 42

000
FTUS41 KRNK 072322
TAFBLF
TAF
KBLF 072322Z 0800/0824 24010G16KT P6SM SCT040
     FM080200 25009KT P6SM SCT035 BKN120
      TEMPO 0810/0812 BKN035
     FM081200 26010G20KT P6SM BKN040
     FM081900 23012G24KT P6SM VCTS OVC040CB=

USA.gov is the U.S. government's official web portal to all federal, state and local government web resources and services.